PWSweather.com
Personal Weather Stations
Station Observations
ITROMSHA6
HarstadNO 9407

HarstadNO 9407

Lat: 68.7814767, Lon: 16.5297091

Elevation: 145

Station Type: Davis Vantage Pro2

High Low Average
Temperature 24.0°F-4.4°C 17.9°F-7.8°C 20.8°F-6.2°C
Dew Point 18.5°F-7.5°C 13.1°F-10.5°C 16.2°F-8.8°C
Winds 9.0 mph 14.5 kmh Calm Calm 6.0 mph WSW9.7 kmh WSW
Wind Gusts 11.0 mph17.7 kmh -- 2.0 mph3.2 kmh
Humidity 87% 77% 82%
Pressure 29.95 in1014.2 mb 29.80 in1009.1 mb -
Precipitation 0.00 in0.0 mm - -
Hour Temp Dew Point Humidity Winds Wind Gusts Pressure Precip Precip Rate Daily Precip Total
12:00 AM 21.8°F-5.7°C 17.6°F-8.0°C 84% 4.0 mph WSW6.4 kmh WSW -- 29.80 in1009.1 mb 0.00 in0.0 mm 0.00 in0.0 mm 0.00 in0.0 mm
12:05 AM 21.9°F-5.6°C 17.6°F-8.0°C 83% 4.0 mph WSW6.4 kmh WSW -- 29.80 in1009.1 mb 0.00 in0.0 mm 0.00 in0.0 mm 0.00 in0.0 mm
12:10 AM 21.6°F-5.8°C 17.2°F-8.2°C 83% 3.0 mph WSW4.8 kmh WSW -- 29.80 in1009.1 mb 0.00 in0.0 mm 0.00 in0.0 mm 0.00 in0.0 mm
12:15 AM 22.0°F-5.6°C 17.6°F-8.0°C 83% 3.0 mph WSW4.8 kmh WSW -- 29.80 in1009.1 mb 0.00 in0.0 mm 0.00 in0.0 mm 0.00 in0.0 mm
12:20 AM 22.2°F-5.4°C 17.6°F-8.0°C 82% 3.0 mph WSW4.8 kmh WSW 6.0 mph9.7 kmh 29.80 in1009.1 mb 0.00 in0.0 mm 0.00 in0.0 mm 0.00 in0.0 mm
12:25 AM 22.2°F-5.4°C 17.6°F-8.0°C 82% 3.0 mph WSW4.8 kmh WSW -- 29.80 in1009.1 mb 0.00 in0.0 mm 0.00 in0.0 mm 0.00 in0.0 mm
12:30 AM 21.5°F-5.8°C 16.7°F-8.5°C 81% 3.0 mph WSW4.8 kmh WSW -- 29.80 in1009.1 mb 0.00 in0.0 mm 0.00 in0.0 mm 0.00 in0.0 mm
12:35 AM 22.0°F-5.6°C 17.6°F-8.0°C 83% 4.0 mph WSW6.4 kmh WSW -- 29.80 in1009.1 mb 0.00 in0.0 mm 0.00 in0.0 mm 0.00 in0.0 mm
12:40 AM 22.3°F-5.4°C 17.6°F-8.0°C 82% 4.0 mph WSW6.4 kmh WSW -- 29.80 in1009.1 mb 0.00 in0.0 mm 0.00 in0.0 mm 0.00 in0.0 mm
12:45 AM 22.4°F-5.3°C 17.6°F-8.0°C 81% 3.0 mph WSW4.8 kmh WSW 6.0 mph9.7 kmh 29.80 in1009.1 mb 0.00 in0.0 mm 0.00 in0.0 mm 0.00 in0.0 mm
12:50 AM 21.6°F-5.8°C 16.7°F-8.5°C 81% Calm Calm -- 29.80 in1009.1 mb 0.00 in0.0 mm 0.00 in0.0 mm 0.00 in0.0 mm
12:55 AM 21.0°F-6.1°C 16.2°F-8.8°C 81% 3.0 mph WSW4.8 kmh WSW -- 29.80 in1009.1 mb 0.00 in0.0 mm 0.00 in0.0 mm 0.00 in0.0 mm
01:00 AM 20.4°F-6.4°C 15.8°F-9.0°C 82% 4.0 mph WSW6.4 kmh WSW -- 29.80 in1009.1 mb 0.00 in0.0 mm 0.00 in0.0 mm 0.00 in0.0 mm
01:05 AM 19.9°F-6.7°C 16.0°F-8.9°C 84% 6.0 mph WSW9.7 kmh WSW -- 29.80 in1009.1 mb 0.00 in0.0 mm 0.00 in0.0 mm 0.00 in0.0 mm
01:10 AM 20.3°F-6.5°C 16.9°F-8.4°C 86% 5.0 mph WSW8.0 kmh WSW 7.0 mph11.3 kmh 29.80 in1009.1 mb 0.00 in0.0 mm 0.00 in0.0 mm 0.00 in0.0 mm
01:15 AM 20.8°F-6.2°C 17.1°F-8.3°C 85% 6.0 mph WSW9.7 kmh WSW -- 29.80 in1009.1 mb 0.00 in0.0 mm 0.00 in0.0 mm 0.00 in0.0 mm
01:20 AM 20.9°F-6.2°C 17.1°F-8.3°C 85% 5.0 mph WSW8.0 kmh WSW -- 29.80 in1009.1 mb 0.00 in0.0 mm 0.00 in0.0 mm 0.00 in0.0 mm
01:25 AM 21.1°F-6.1°C 16.9°F-8.4°C 84% 5.0 mph WSW8.0 kmh WSW -- 29.80 in1009.1 mb 0.00 in0.0 mm 0.00 in0.0 mm 0.00 in0.0 mm
01:30 AM 21.1°F-6.1°C 16.7°F-8.5°C 83% 6.0 mph WSW9.7 kmh WSW -- 29.80 in1009.1 mb 0.00 in0.0 mm 0.00 in0.0 mm 0.00 in0.0 mm
01:35 AM 21.4°F-5.9°C 17.1°F-8.3°C 83% 4.0 mph WSW6.4 kmh WSW 8.0 mph12.9 kmh 29.80 in1009.1 mb 0.00 in0.0 mm 0.00 in0.0 mm 0.00 in0.0 mm
01:40 AM 21.6°F-5.8°C 17.2°F-8.2°C 83% 5.0 mph WSW8.0 kmh WSW -- 29.81 in1009.5 mb 0.00 in0.0 mm 0.00 in0.0 mm 0.00 in0.0 mm
01:45 AM 21.5°F-5.8°C 16.7°F-8.5°C 81% 4.0 mph WSW6.4 kmh WSW -- 29.81 in1009.5 mb 0.00 in0.0 mm 0.00 in0.0 mm 0.00 in0.0 mm
01:50 AM 21.7°F-5.7°C 17.4°F-8.1°C 83% 4.0 mph WSW6.4 kmh WSW -- 29.80 in1009.1 mb 0.00 in0.0 mm 0.00 in0.0 mm 0.00 in0.0 mm
01:55 AM 21.2°F-6.0°C 16.5°F-8.6°C 82% 6.0 mph WSW9.7 kmh WSW -- 29.81 in1009.5 mb 0.00 in0.0 mm 0.00 in0.0 mm 0.00 in0.0 mm
02:00 AM 21.7°F-5.7°C 17.1°F-8.3°C 82% 7.0 mph WSW11.3 kmh WSW 7.0 mph11.3 kmh 29.81 in1009.5 mb 0.00 in0.0 mm 0.00 in0.0 mm 0.00 in0.0 mm
02:05 AM 21.8°F-5.7°C 17.1°F-8.3°C 82% 5.0 mph WSW8.0 kmh WSW -- 29.81 in1009.5 mb 0.00 in0.0 mm 0.00 in0.0 mm 0.00 in0.0 mm
02:10 AM 21.7°F-5.7°C 17.1°F-8.3°C 82% 5.0 mph WSW8.0 kmh WSW -- 29.81 in1009.5 mb 0.00 in0.0 mm 0.00 in0.0 mm 0.00 in0.0 mm
02:15 AM 21.7°F-5.7°C 16.9°F-8.4°C 81% 5.0 mph WSW8.0 kmh WSW -- 29.81 in1009.5 mb 0.00 in0.0 mm 0.00 in0.0 mm 0.00 in0.0 mm
02:20 AM 21.5°F-5.8°C 16.9°F-8.4°C 82% 4.0 mph WSW6.4 kmh WSW -- 29.81 in1009.5 mb 0.00 in0.0 mm 0.00 in0.0 mm 0.00 in0.0 mm
02:25 AM 21.6°F-5.8°C 16.9°F-8.4°C 82% 5.0 mph SW8.0 kmh SW 6.0 mph9.7 kmh 29.80 in1009.1 mb 0.00 in0.0 mm 0.00 in0.0 mm 0.00 in0.0 mm
02:30 AM 21.6°F-5.8°C 16.9°F-8.4°C 82% 6.0 mph SW9.7 kmh SW -- 29.81 in1009.5 mb 0.00 in0.0 mm 0.00 in0.0 mm 0.00 in0.0 mm
02:35 AM 21.4°F-5.9°C 16.7°F-8.5°C 82% 6.0 mph SW9.7 kmh SW -- 29.81 in1009.5 mb 0.00 in0.0 mm 0.00 in0.0 mm 0.00 in0.0 mm
02:40 AM 21.4°F-5.9°C 16.5°F-8.6°C 81% 5.0 mph SW8.0 kmh SW -- 29.80 in1009.1 mb 0.00 in0.0 mm 0.00 in0.0 mm 0.00 in0.0 mm
02:45 AM 21.0°F-6.1°C 16.3°F-8.7°C 82% 5.0 mph SW8.0 kmh SW -- 29.81 in1009.5 mb 0.00 in0.0 mm 0.00 in0.0 mm 0.00 in0.0 mm
02:50 AM 20.7°F-6.3°C 16.3°F-8.7°C 83% 5.0 mph SW8.0 kmh SW 7.0 mph11.3 kmh 29.81 in1009.5 mb 0.00 in0.0 mm 0.00 in0.0 mm 0.00 in0.0 mm
02:55 AM 20.2°F-6.6°C 15.8°F-9.0°C 83% 5.0 mph SW8.0 kmh SW -- 29.81 in1009.5 mb 0.00 in0.0 mm 0.00 in0.0 mm 0.00 in0.0 mm
03:00 AM 19.9°F-6.7°C 15.6°F-9.1°C 83% 6.0 mph SW9.7 kmh SW -- 29.81 in1009.5 mb 0.00 in0.0 mm 0.00 in0.0 mm 0.00 in0.0 mm
03:05 AM 20.1°F-6.6°C 16.3°F-8.7°C 85% 4.0 mph SW6.4 kmh SW -- 29.81 in1009.5 mb 0.00 in0.0 mm 0.00 in0.0 mm 0.00 in0.0 mm
03:10 AM 19.8°F-6.8°C 15.8°F-9.0°C 84% 5.0 mph SW8.0 kmh SW -- 29.81 in1009.5 mb 0.00 in0.0 mm 0.00 in0.0 mm 0.00 in0.0 mm
03:15 AM 19.8°F-6.8°C 15.8°F-9.0°C 84% 4.0 mph SW6.4 kmh SW 5.0 mph8.0 kmh 29.81 in1009.5 mb 0.00 in0.0 mm 0.00 in0.0 mm 0.00 in0.0 mm
03:20 AM 19.9°F-6.7°C 16.0°F-8.9°C 84% 4.0 mph SW6.4 kmh SW -- 29.81 in1009.5 mb 0.00 in0.0 mm 0.00 in0.0 mm 0.00 in0.0 mm
03:25 AM 20.4°F-6.4°C 16.3°F-8.7°C 84% 3.0 mph SW4.8 kmh SW -- 29.81 in1009.5 mb 0.00 in0.0 mm 0.00 in0.0 mm 0.00 in0.0 mm
03:30 AM 21.0°F-6.1°C 16.9°F-8.4°C 84% 3.0 mph SW4.8 kmh SW -- 29.81 in1009.5 mb 0.00 in0.0 mm 0.00 in0.0 mm 0.00 in0.0 mm
03:35 AM 20.8°F-6.2°C 16.7°F-8.5°C 84% 3.0 mph SW4.8 kmh SW -- 29.81 in1009.5 mb 0.00 in0.0 mm 0.00 in0.0 mm 0.00 in0.0 mm
03:40 AM 20.6°F-6.3°C 16.5°F-8.6°C 84% 5.0 mph SW8.0 kmh SW 6.0 mph9.7 kmh 29.81 in1009.5 mb 0.00 in0.0 mm 0.00 in0.0 mm 0.00 in0.0 mm
03:45 AM 20.8°F-6.2°C 17.1°F-8.3°C 85% 5.0 mph WSW8.0 kmh WSW -- 29.81 in1009.5 mb 0.00 in0.0 mm 0.00 in0.0 mm 0.00 in0.0 mm
03:50 AM 21.0°F-6.1°C 17.2°F-8.2°C 85% 5.0 mph WSW8.0 kmh WSW -- 29.81 in1009.5 mb 0.00 in0.0 mm 0.00 in0.0 mm 0.00 in0.0 mm
03:55 AM 20.6°F-6.3°C 16.5°F-8.6°C 84% 4.0 mph SW6.4 kmh SW -- 29.81 in1009.5 mb 0.00 in0.0 mm 0.00 in0.0 mm 0.00 in0.0 mm
04:00 AM 19.9°F-6.7°C 16.0°F-8.9°C 84% 3.0 mph WSW4.8 kmh WSW -- 29.81 in1009.5 mb 0.00 in0.0 mm 0.00 in0.0 mm 0.00 in0.0 mm
04:05 AM 19.9°F-6.7°C 16.2°F-8.8°C 85% 7.0 mph WSW11.3 kmh WSW 6.0 mph9.7 kmh 29.81 in1009.5 mb 0.00 in0.0 mm 0.00 in0.0 mm 0.00 in0.0 mm
04:10 AM 20.3°F-6.5°C 16.9°F-8.4°C 86% 6.0 mph WSW9.7 kmh WSW -- 29.81 in1009.5 mb 0.00 in0.0 mm 0.00 in0.0 mm 0.00 in0.0 mm
04:15 AM 20.4°F-6.4°C 16.7°F-8.5°C 85% 7.0 mph WSW11.3 kmh WSW -- 29.81 in1009.5 mb 0.00 in0.0 mm 0.00 in0.0 mm 0.00 in0.0 mm
04:20 AM 20.7°F-6.3°C 16.9°F-8.4°C 85% 8.0 mph WSW12.9 kmh WSW -- 29.81 in1009.5 mb 0.00 in0.0 mm 0.00 in0.0 mm 0.00 in0.0 mm
04:25 AM 21.3°F-5.9°C 17.6°F-8.0°C 85% 6.0 mph SW9.7 kmh SW -- 29.81 in1009.5 mb 0.00 in0.0 mm 0.00 in0.0 mm 0.00 in0.0 mm
04:30 AM 20.7°F-6.3°C 16.5°F-8.6°C 84% 6.0 mph WSW9.7 kmh WSW 8.0 mph12.9 kmh 29.81 in1009.5 mb 0.00 in0.0 mm 0.00 in0.0 mm 0.00 in0.0 mm
04:35 AM 20.9°F-6.2°C 16.7°F-8.5°C 84% 7.0 mph WSW11.3 kmh WSW -- 29.81 in1009.5 mb 0.00 in0.0 mm 0.00 in0.0 mm 0.00 in0.0 mm
04:40 AM 20.5°F-6.4°C 16.2°F-8.8°C 83% 6.0 mph WSW9.7 kmh WSW -- 29.81 in1009.5 mb 0.00 in0.0 mm 0.00 in0.0 mm 0.00 in0.0 mm
04:45 AM 20.5°F-6.4°C 16.3°F-8.7°C 84% 6.0 mph WSW9.7 kmh WSW -- 29.81 in1009.5 mb 0.00 in0.0 mm 0.00 in0.0 mm 0.00 in0.0 mm
04:50 AM 20.5°F-6.4°C 16.3°F-8.7°C 84% 6.0 mph SW9.7 kmh SW -- 29.81 in1009.5 mb 0.00 in0.0 mm 0.00 in0.0 mm 0.00 in0.0 mm
04:55 AM 20.9°F-6.2°C 17.1°F-8.3°C 85% 6.0 mph WSW9.7 kmh WSW 7.0 mph11.3 kmh 29.81 in1009.5 mb 0.00 in0.0 mm 0.00 in0.0 mm 0.00 in0.0 mm
05:00 AM 21.0°F-6.1°C 16.7°F-8.5°C 83% 7.0 mph WSW11.3 kmh WSW -- 29.81 in1009.5 mb 0.00 in0.0 mm 0.00 in0.0 mm 0.00 in0.0 mm
05:05 AM 20.3°F-6.5°C 16.0°F-8.9°C 83% 6.0 mph WSW9.7 kmh WSW -- 29.81 in1009.5 mb 0.00 in0.0 mm 0.00 in0.0 mm 0.00 in0.0 mm
05:10 AM 20.2°F-6.6°C 16.2°F-8.8°C 84% 4.0 mph SW6.4 kmh SW -- 29.81 in1009.5 mb 0.00 in0.0 mm 0.00 in0.0 mm 0.00 in0.0 mm
05:15 AM 19.8°F-6.8°C 15.4°F-9.2°C 83% 4.0 mph SW6.4 kmh SW -- 29.81 in1009.5 mb 0.00 in0.0 mm 0.00 in0.0 mm 0.00 in0.0 mm
05:20 AM 19.6°F-6.9°C 15.6°F-9.1°C 84% 6.0 mph WSW9.7 kmh WSW 7.0 mph11.3 kmh 29.81 in1009.5 mb 0.00 in0.0 mm 0.00 in0.0 mm 0.00 in0.0 mm
05:25 AM 20.0°F-6.7°C 16.2°F-8.8°C 85% 5.0 mph WSW8.0 kmh WSW -- 29.81 in1009.5 mb 0.00 in0.0 mm 0.00 in0.0 mm 0.00 in0.0 mm
05:30 AM 20.7°F-6.3°C 16.5°F-8.6°C 84% 6.0 mph WSW9.7 kmh WSW -- 29.81 in1009.5 mb 0.00 in0.0 mm 0.00 in0.0 mm 0.00 in0.0 mm
05:35 AM 20.3°F-6.5°C 16.3°F-8.7°C 84% 6.0 mph WSW9.7 kmh WSW -- 29.81 in1009.5 mb 0.00 in0.0 mm 0.00 in0.0 mm 0.00 in0.0 mm
05:40 AM 20.7°F-6.3°C 16.5°F-8.6°C 84% 7.0 mph WSW11.3 kmh WSW -- 29.81 in1009.5 mb 0.00 in0.0 mm 0.00 in0.0 mm 0.00 in0.0 mm
05:45 AM 21.6°F-5.8°C 17.4°F-8.1°C 84% 6.0 mph WSW9.7 kmh WSW 8.0 mph12.9 kmh 29.81 in1009.5 mb 0.00 in0.0 mm 0.00 in0.0 mm 0.00 in0.0 mm
05:50 AM 21.7°F-5.7°C 17.1°F-8.3°C 82% 5.0 mph WSW8.0 kmh WSW -- 29.81 in1009.5 mb 0.00 in0.0 mm 0.00 in0.0 mm 0.00 in0.0 mm
05:55 AM 20.9°F-6.2°C 16.5°F-8.6°C 83% 6.0 mph WSW9.7 kmh WSW -- 29.81 in1009.5 mb 0.00 in0.0 mm 0.00 in0.0 mm 0.00 in0.0 mm
06:00 AM 21.5°F-5.8°C 17.2°F-8.2°C 83% 8.0 mph WSW12.9 kmh WSW -- 29.81 in1009.5 mb 0.00 in0.0 mm 0.00 in0.0 mm 0.00 in0.0 mm
06:05 AM 21.6°F-5.8°C 16.9°F-8.4°C 82% 7.0 mph WSW11.3 kmh WSW -- 29.81 in1009.5 mb 0.00 in0.0 mm 0.00 in0.0 mm 0.00 in0.0 mm
06:10 AM 21.5°F-5.8°C 16.9°F-8.4°C 82% 7.0 mph WSW11.3 kmh WSW 8.0 mph12.9 kmh 29.81 in1009.5 mb 0.00 in0.0 mm 0.00 in0.0 mm 0.00 in0.0 mm
06:15 AM 20.9°F-6.2°C 16.2°F-8.8°C 82% 6.0 mph WSW9.7 kmh WSW -- 29.82 in1009.8 mb 0.00 in0.0 mm 0.00 in0.0 mm 0.00 in0.0 mm
06:20 AM 19.9°F-6.7°C 15.6°F-9.1°C 83% 7.0 mph WSW11.3 kmh WSW -- 29.82 in1009.8 mb 0.00 in0.0 mm 0.00 in0.0 mm 0.00 in0.0 mm
06:25 AM 20.0°F-6.7°C 16.0°F-8.9°C 84% 6.0 mph WSW9.7 kmh WSW -- 29.82 in1009.8 mb 0.00 in0.0 mm 0.00 in0.0 mm 0.00 in0.0 mm
06:30 AM 20.2°F-6.6°C 16.3°F-8.7°C 85% 7.0 mph WSW11.3 kmh WSW -- 29.82 in1009.8 mb 0.00 in0.0 mm 0.00 in0.0 mm 0.00 in0.0 mm
06:35 AM 20.0°F-6.7°C 16.0°F-8.9°C 84% 6.0 mph WSW9.7 kmh WSW 8.0 mph12.9 kmh 29.82 in1009.8 mb 0.00 in0.0 mm 0.00 in0.0 mm 0.00 in0.0 mm
06:40 AM 19.7°F-6.8°C 15.8°F-9.0°C 84% 6.0 mph WSW9.7 kmh WSW -- 29.82 in1009.8 mb 0.00 in0.0 mm 0.00 in0.0 mm 0.00 in0.0 mm
06:45 AM 19.4°F-7.0°C 15.4°F-9.2°C 84% 5.0 mph SW8.0 kmh SW -- 29.82 in1009.8 mb 0.00 in0.0 mm 0.00 in0.0 mm 0.00 in0.0 mm
06:50 AM 19.6°F-6.9°C 15.8°F-9.0°C 85% 5.0 mph SW8.0 kmh SW -- 29.82 in1009.8 mb 0.00 in0.0 mm 0.00 in0.0 mm 0.00 in0.0 mm
06:55 AM 19.2°F-7.1°C 15.4°F-9.2°C 85% 6.0 mph SW9.7 kmh SW -- 29.82 in1009.8 mb 0.00 in0.0 mm 0.00 in0.0 mm 0.00 in0.0 mm
07:00 AM 19.7°F-6.8°C 16.3°F-8.7°C 86% 6.0 mph WSW9.7 kmh WSW 7.0 mph11.3 kmh 29.82 in1009.8 mb 0.00 in0.0 mm 0.00 in0.0 mm 0.00 in0.0 mm
07:05 AM 19.6°F-6.9°C 16.2°F-8.8°C 86% 5.0 mph SW8.0 kmh SW -- 29.82 in1009.8 mb 0.00 in0.0 mm 0.00 in0.0 mm 0.00 in0.0 mm
07:10 AM 19.7°F-6.8°C 16.5°F-8.6°C 87% 4.0 mph WSW6.4 kmh WSW -- 29.82 in1009.8 mb 0.00 in0.0 mm 0.00 in0.0 mm 0.00 in0.0 mm
07:15 AM 19.8°F-6.8°C 16.3°F-8.7°C 86% 5.0 mph WSW8.0 kmh WSW -- 29.82 in1009.8 mb 0.00 in0.0 mm 0.00 in0.0 mm 0.00 in0.0 mm
07:20 AM 19.7°F-6.8°C 16.3°F-8.7°C 86% 5.0 mph WSW8.0 kmh WSW -- 29.83 in1010.2 mb 0.00 in0.0 mm 0.00 in0.0 mm 0.00 in0.0 mm
07:25 AM 20.3°F-6.5°C 16.9°F-8.4°C 86% 7.0 mph WSW11.3 kmh WSW 8.0 mph12.9 kmh 29.83 in1010.2 mb 0.00 in0.0 mm 0.00 in0.0 mm 0.00 in0.0 mm
07:30 AM 21.2°F-6.0°C 17.6°F-8.0°C 86% 7.0 mph WSW11.3 kmh WSW -- 29.83 in1010.2 mb 0.00 in0.0 mm 0.00 in0.0 mm 0.00 in0.0 mm
07:35 AM 21.6°F-5.8°C 17.4°F-8.1°C 84% 8.0 mph WSW12.9 kmh WSW -- 29.83 in1010.2 mb 0.00 in0.0 mm 0.00 in0.0 mm 0.00 in0.0 mm
07:40 AM 20.9°F-6.2°C 16.5°F-8.6°C 83% 5.0 mph WSW8.0 kmh WSW -- 29.83 in1010.2 mb 0.00 in0.0 mm 0.00 in0.0 mm 0.00 in0.0 mm
07:45 AM 20.8°F-6.2°C 16.5°F-8.6°C 83% 7.0 mph WSW11.3 kmh WSW -- 29.83 in1010.2 mb 0.00 in0.0 mm 0.00 in0.0 mm 0.00 in0.0 mm
07:50 AM 21.2°F-6.0°C 16.9°F-8.4°C 83% 7.0 mph WSW11.3 kmh WSW 8.0 mph12.9 kmh 29.83 in1010.2 mb 0.00 in0.0 mm 0.00 in0.0 mm 0.00 in0.0 mm
07:55 AM 20.9°F-6.2°C 16.2°F-8.8°C 82% 8.0 mph WSW12.9 kmh WSW -- 29.83 in1010.2 mb 0.00 in0.0 mm 0.00 in0.0 mm 0.00 in0.0 mm
08:00 AM 21.2°F-6.0°C 16.9°F-8.4°C 83% 7.0 mph WSW11.3 kmh WSW -- 29.83 in1010.2 mb 0.00 in0.0 mm 0.00 in0.0 mm 0.00 in0.0 mm
08:05 AM 21.1°F-6.1°C 16.7°F-8.5°C 83% 7.0 mph WSW11.3 kmh WSW -- 29.84 in1010.5 mb 0.00 in0.0 mm 0.00 in0.0 mm 0.00 in0.0 mm
08:10 AM 21.1°F-6.1°C 16.7°F-8.5°C 83% 7.0 mph WSW11.3 kmh WSW -- 29.84 in1010.5 mb 0.00 in0.0 mm 0.00 in0.0 mm 0.00 in0.0 mm
08:15 AM 21.2°F-6.0°C 16.9°F-8.4°C 83% 6.0 mph WSW9.7 kmh WSW 9.0 mph14.5 kmh 29.84 in1010.5 mb 0.00 in0.0 mm 0.00 in0.0 mm 0.00 in0.0 mm
08:20 AM 21.4°F-5.9°C 16.7°F-8.5°C 82% 7.0 mph WSW11.3 kmh WSW -- 29.84 in1010.5 mb 0.00 in0.0 mm 0.00 in0.0 mm 0.00 in0.0 mm
08:25 AM 21.4°F-5.9°C 16.7°F-8.5°C 82% 7.0 mph WSW11.3 kmh WSW -- 29.84 in1010.5 mb 0.00 in0.0 mm 0.00 in0.0 mm 0.00 in0.0 mm
08:30 AM 20.7°F-6.3°C 15.8°F-9.0°C 81% 6.0 mph WSW9.7 kmh WSW -- 29.84 in1010.5 mb 0.00 in0.0 mm 0.00 in0.0 mm 0.00 in0.0 mm
08:35 AM 19.8°F-6.8°C 15.3°F-9.3°C 82% 5.0 mph SW8.0 kmh SW -- 29.84 in1010.5 mb 0.00 in0.0 mm 0.00 in0.0 mm 0.00 in0.0 mm
08:40 AM 19.4°F-7.0°C 15.1°F-9.4°C 83% 6.0 mph WSW9.7 kmh WSW 8.0 mph12.9 kmh 29.84 in1010.5 mb 0.00 in0.0 mm 0.00 in0.0 mm 0.00 in0.0 mm
08:45 AM 19.1°F-7.2°C 14.7°F-9.6°C 83% 5.0 mph SW8.0 kmh SW -- 29.84 in1010.5 mb 0.00 in0.0 mm 0.00 in0.0 mm 0.00 in0.0 mm
08:50 AM 19.2°F-7.1°C 15.3°F-9.3°C 84% 4.0 mph SW6.4 kmh SW -- 29.84 in1010.5 mb 0.00 in0.0 mm 0.00 in0.0 mm 0.00 in0.0 mm
08:55 AM 19.1°F-7.2°C 15.3°F-9.3°C 85% 5.0 mph SW8.0 kmh SW -- 29.84 in1010.5 mb 0.00 in0.0 mm 0.00 in0.0 mm 0.00 in0.0 mm
09:00 AM 20.7°F-6.3°C 17.4°F-8.1°C 87% 7.0 mph WSW11.3 kmh WSW -- 29.84 in1010.5 mb 0.00 in0.0 mm 0.00 in0.0 mm 0.00 in0.0 mm
09:05 AM 20.4°F-6.4°C 16.3°F-8.7°C 84% 7.0 mph WSW11.3 kmh WSW 9.0 mph14.5 kmh 29.84 in1010.5 mb 0.00 in0.0 mm 0.00 in0.0 mm 0.00 in0.0 mm
09:10 AM 21.0°F-6.1°C 17.2°F-8.2°C 85% 6.0 mph WSW9.7 kmh WSW -- 29.84 in1010.5 mb 0.00 in0.0 mm 0.00 in0.0 mm 0.00 in0.0 mm
09:15 AM 21.5°F-5.8°C 18.0°F-7.8°C 86% 7.0 mph WSW11.3 kmh WSW -- 29.85 in1010.8 mb 0.00 in0.0 mm 0.00 in0.0 mm 0.00 in0.0 mm
09:20 AM 21.8°F-5.7°C 17.6°F-8.0°C 84% 7.0 mph WSW11.3 kmh WSW -- 29.85 in1010.8 mb 0.00 in0.0 mm 0.00 in0.0 mm 0.00 in0.0 mm
09:25 AM 21.2°F-6.0°C 16.9°F-8.4°C 83% 7.0 mph WSW11.3 kmh WSW -- 29.85 in1010.8 mb 0.00 in0.0 mm 0.00 in0.0 mm 0.00 in0.0 mm
09:30 AM 21.1°F-6.1°C 16.9°F-8.4°C 84% 8.0 mph WSW12.9 kmh WSW 9.0 mph14.5 kmh 29.85 in1010.8 mb 0.00 in0.0 mm 0.00 in0.0 mm 0.00 in0.0 mm
09:35 AM 20.5°F-6.4°C 16.2°F-8.8°C 83% 6.0 mph WSW9.7 kmh WSW -- 29.85 in1010.8 mb 0.00 in0.0 mm 0.00 in0.0 mm 0.00 in0.0 mm
09:40 AM 21.1°F-6.1°C 16.9°F-8.4°C 84% 7.0 mph WSW11.3 kmh WSW -- 29.85 in1010.8 mb 0.00 in0.0 mm 0.00 in0.0 mm 0.00 in0.0 mm
09:45 AM 21.4°F-5.9°C 16.7°F-8.5°C 82% 7.0 mph WSW11.3 kmh WSW -- 29.85 in1010.8 mb 0.00 in0.0 mm 0.00 in0.0 mm 0.00 in0.0 mm
09:50 AM 21.2°F-6.0°C 16.5°F-8.6°C 82% 6.0 mph WSW9.7 kmh WSW -- 29.86 in1011.2 mb 0.00 in0.0 mm 0.00 in0.0 mm 0.00 in0.0 mm
09:55 AM 21.5°F-5.8°C 17.2°F-8.2°C 83% 7.0 mph WSW11.3 kmh WSW 8.0 mph12.9 kmh 29.86 in1011.2 mb 0.00 in0.0 mm 0.00 in0.0 mm 0.00 in0.0 mm
10:00 AM 22.1°F-5.5°C 17.4°F-8.1°C 82% 8.0 mph WSW12.9 kmh WSW -- 29.86 in1011.2 mb 0.00 in0.0 mm 0.00 in0.0 mm 0.00 in0.0 mm
10:05 AM 22.6°F-5.2°C 17.8°F-7.9°C 81% 7.0 mph WSW11.3 kmh WSW -- 29.86 in1011.2 mb 0.00 in0.0 mm 0.00 in0.0 mm 0.00 in0.0 mm
10:10 AM 23.3°F-4.8°C 18.1°F-7.7°C 80% 3.0 mph WSW4.8 kmh WSW -- 29.86 in1011.2 mb 0.00 in0.0 mm 0.00 in0.0 mm 0.00 in0.0 mm
10:15 AM 22.3°F-5.4°C 16.5°F-8.6°C 78% 5.0 mph SW8.0 kmh SW -- 29.86 in1011.2 mb 0.00 in0.0 mm 0.00 in0.0 mm 0.00 in0.0 mm
10:20 AM 21.3°F-5.9°C 16.2°F-8.8°C 80% 4.0 mph WSW6.4 kmh WSW 5.0 mph8.0 kmh 29.86 in1011.2 mb 0.00 in0.0 mm 0.00 in0.0 mm 0.00 in0.0 mm
10:25 AM 21.5°F-5.8°C 16.7°F-8.5°C 81% 4.0 mph WSW6.4 kmh WSW -- 29.86 in1011.2 mb 0.00 in0.0 mm 0.00 in0.0 mm 0.00 in0.0 mm
10:30 AM 21.6°F-5.8°C 16.3°F-8.7°C 80% 4.0 mph WSW6.4 kmh WSW -- 29.86 in1011.2 mb 0.00 in0.0 mm 0.00 in0.0 mm 0.00 in0.0 mm
10:35 AM 22.4°F-5.3°C 17.2°F-8.2°C 80% 4.0 mph SW6.4 kmh SW -- 29.86 in1011.2 mb 0.00 in0.0 mm 0.00 in0.0 mm 0.00 in0.0 mm
10:40 AM 22.1°F-5.5°C 16.9°F-8.4°C 80% 3.0 mph WSW4.8 kmh WSW -- 29.86 in1011.2 mb 0.00 in0.0 mm 0.00 in0.0 mm 0.00 in0.0 mm
10:45 AM 22.3°F-5.4°C 17.4°F-8.1°C 81% 5.0 mph WSW8.0 kmh WSW 6.0 mph9.7 kmh 29.86 in1011.2 mb 0.00 in0.0 mm 0.00 in0.0 mm 0.00 in0.0 mm
10:50 AM 23.3°F-4.8°C 18.1°F-7.7°C 80% 2.0 mph WSW3.2 kmh WSW -- 29.87 in1011.5 mb 0.00 in0.0 mm 0.00 in0.0 mm 0.00 in0.0 mm
10:55 AM 23.1°F-4.9°C 17.4°F-8.1°C 78% 4.0 mph SW6.4 kmh SW -- 29.87 in1011.5 mb 0.00 in0.0 mm 0.00 in0.0 mm 0.00 in0.0 mm
11:00 AM 22.5°F-5.3°C 16.9°F-8.4°C 79% 4.0 mph WSW6.4 kmh WSW -- 29.87 in1011.5 mb 0.00 in0.0 mm 0.00 in0.0 mm 0.00 in0.0 mm
11:05 AM 23.2°F-4.9°C 17.6°F-8.0°C 79% 4.0 mph WSW6.4 kmh WSW -- 29.87 in1011.5 mb 0.00 in0.0 mm 0.00 in0.0 mm 0.00 in0.0 mm
11:10 AM 23.7°F-4.6°C 18.0°F-7.8°C 78% 3.0 mph WSW4.8 kmh WSW 5.0 mph8.0 kmh 29.87 in1011.5 mb 0.00 in0.0 mm 0.00 in0.0 mm 0.00 in0.0 mm
11:15 AM 22.5°F-5.3°C 16.3°F-8.7°C 77% 4.0 mph WSW6.4 kmh WSW -- 29.87 in1011.5 mb 0.00 in0.0 mm 0.00 in0.0 mm 0.00 in0.0 mm
11:20 AM 21.9°F-5.6°C 17.1°F-8.3°C 81% 4.0 mph WSW6.4 kmh WSW -- 29.87 in1011.5 mb 0.00 in0.0 mm 0.00 in0.0 mm 0.00 in0.0 mm
11:25 AM 22.7°F-5.2°C 17.8°F-7.9°C 81% 4.0 mph SW6.4 kmh SW -- 29.87 in1011.5 mb 0.00 in0.0 mm 0.00 in0.0 mm 0.00 in0.0 mm
11:30 AM 23.4°F-4.8°C 18.1°F-7.7°C 80% 3.0 mph WSW4.8 kmh WSW -- 29.87 in1011.5 mb 0.00 in0.0 mm 0.00 in0.0 mm 0.00 in0.0 mm
11:35 AM 23.7°F-4.6°C 18.1°F-7.7°C 79% 4.0 mph WSW6.4 kmh WSW 6.0 mph9.7 kmh 29.87 in1011.5 mb 0.00 in0.0 mm 0.00 in0.0 mm 0.00 in0.0 mm
11:40 AM 24.0°F-4.4°C 18.3°F-7.6°C 78% 4.0 mph WSW6.4 kmh WSW -- 29.87 in1011.5 mb 0.00 in0.0 mm 0.00 in0.0 mm 0.00 in0.0 mm
11:45 AM 24.0°F-4.4°C 18.3°F-7.6°C 78% 3.0 mph WSW4.8 kmh WSW -- 29.87 in1011.5 mb 0.00 in0.0 mm 0.00 in0.0 mm 0.00 in0.0 mm
11:50 AM 23.5°F-4.7°C 17.8°F-7.9°C 78% 2.0 mph WSW3.2 kmh WSW -- 29.87 in1011.5 mb 0.00 in0.0 mm 0.00 in0.0 mm 0.00 in0.0 mm
11:55 AM 23.0°F-5.0°C 17.2°F-8.2°C 78% 3.0 mph WSW4.8 kmh WSW -- 29.87 in1011.5 mb 0.00 in0.0 mm 0.00 in0.0 mm 0.00 in0.0 mm
12:00 PM 22.1°F-5.5°C 16.3°F-8.7°C 78% 4.0 mph WSW6.4 kmh WSW 4.0 mph6.4 kmh 29.88 in1011.9 mb 0.00 in0.0 mm 0.00 in0.0 mm 0.00 in0.0 mm
12:05 PM 21.8°F-5.7°C 16.9°F-8.4°C 81% 4.0 mph WSW6.4 kmh WSW -- 29.88 in1011.9 mb 0.00 in0.0 mm 0.00 in0.0 mm 0.00 in0.0 mm
12:10 PM 21.4°F-5.9°C 16.7°F-8.5°C 82% 6.0 mph WSW9.7 kmh WSW -- 29.88 in1011.9 mb 0.00 in0.0 mm 0.00 in0.0 mm 0.00 in0.0 mm
12:15 PM 21.2°F-6.0°C 17.1°F-8.3°C 84% 5.0 mph WSW8.0 kmh WSW -- 29.88 in1011.9 mb 0.00 in0.0 mm 0.00 in0.0 mm 0.00 in0.0 mm
12:20 PM 20.9°F-6.2°C 16.5°F-8.6°C 83% 5.0 mph WSW8.0 kmh WSW -- 29.88 in1011.9 mb 0.00 in0.0 mm 0.00 in0.0 mm 0.00 in0.0 mm
12:25 PM 20.3°F-6.5°C 16.3°F-8.7°C 84% 7.0 mph WSW11.3 kmh WSW 7.0 mph11.3 kmh 29.88 in1011.9 mb 0.00 in0.0 mm 0.00 in0.0 mm 0.00 in0.0 mm
12:30 PM 20.5°F-6.4°C 17.1°F-8.3°C 86% 6.0 mph WSW9.7 kmh WSW -- 29.88 in1011.9 mb 0.00 in0.0 mm 0.00 in0.0 mm 0.00 in0.0 mm
12:35 PM 20.9°F-6.2°C 17.2°F-8.2°C 86% 7.0 mph SW11.3 kmh SW -- 29.88 in1011.9 mb 0.00 in0.0 mm 0.00 in0.0 mm 0.00 in0.0 mm
12:40 PM 21.0°F-6.1°C 17.4°F-8.1°C 86% 5.0 mph WSW8.0 kmh WSW -- 29.88 in1011.9 mb 0.00 in0.0 mm 0.00 in0.0 mm 0.00 in0.0 mm
12:45 PM 21.0°F-6.1°C 17.2°F-8.2°C 85% 6.0 mph SW9.7 kmh SW -- 29.88 in1011.9 mb 0.00 in0.0 mm 0.00 in0.0 mm 0.00 in0.0 mm
12:50 PM 21.5°F-5.8°C 18.0°F-7.8°C 86% 5.0 mph WSW8.0 kmh WSW 8.0 mph12.9 kmh 29.88 in1011.9 mb 0.00 in0.0 mm 0.00 in0.0 mm 0.00 in0.0 mm
12:55 PM 21.2°F-6.0°C 17.4°F-8.1°C 85% 6.0 mph WSW9.7 kmh WSW -- 29.88 in1011.9 mb 0.00 in0.0 mm 0.00 in0.0 mm 0.00 in0.0 mm
01:00 PM 21.5°F-5.8°C 17.8°F-7.9°C 85% 6.0 mph WSW9.7 kmh WSW -- 29.88 in1011.9 mb 0.00 in0.0 mm 0.00 in0.0 mm 0.00 in0.0 mm
01:05 PM 22.0°F-5.6°C 18.1°F-7.7°C 85% 6.0 mph WSW9.7 kmh WSW -- 29.88 in1011.9 mb 0.00 in0.0 mm 0.00 in0.0 mm 0.00 in0.0 mm
01:10 PM 21.9°F-5.6°C 17.8°F-7.9°C 84% 5.0 mph WSW8.0 kmh WSW -- 29.88 in1011.9 mb 0.00 in0.0 mm 0.00 in0.0 mm 0.00 in0.0 mm
01:15 PM 22.9°F-5.1°C 18.5°F-7.5°C 83% 5.0 mph WSW8.0 kmh WSW 7.0 mph11.3 kmh 29.88 in1011.9 mb 0.00 in0.0 mm 0.00 in0.0 mm 0.00 in0.0 mm
01:20 PM 22.5°F-5.3°C 17.8°F-7.9°C 82% 3.0 mph WSW4.8 kmh WSW -- 29.88 in1011.9 mb 0.00 in0.0 mm 0.00 in0.0 mm 0.00 in0.0 mm
01:25 PM 22.7°F-5.2°C 18.0°F-7.8°C 82% 4.0 mph WSW6.4 kmh WSW -- 29.88 in1011.9 mb 0.00 in0.0 mm 0.00 in0.0 mm 0.00 in0.0 mm
01:30 PM 22.2°F-5.4°C 17.4°F-8.1°C 81% 5.0 mph SW8.0 kmh SW -- 29.88 in1011.9 mb 0.00 in0.0 mm 0.00 in0.0 mm 0.00 in0.0 mm
01:35 PM 21.9°F-5.6°C 17.2°F-8.2°C 82% 6.0 mph SW9.7 kmh SW -- 29.88 in1011.9 mb 0.00 in0.0 mm 0.00 in0.0 mm 0.00 in0.0 mm
01:40 PM 22.8°F-5.1°C 18.5°F-7.5°C 83% 3.0 mph WSW4.8 kmh WSW 7.0 mph11.3 kmh 29.89 in1012.2 mb 0.00 in0.0 mm 0.00 in0.0 mm 0.00 in0.0 mm
01:45 PM 22.2°F-5.4°C 17.4°F-8.1°C 81% 6.0 mph WSW9.7 kmh WSW -- 29.89 in1012.2 mb 0.00 in0.0 mm 0.00 in0.0 mm 0.00 in0.0 mm
01:50 PM 22.7°F-5.2°C 18.0°F-7.8°C 82% 6.0 mph WSW9.7 kmh WSW -- 29.88 in1011.9 mb 0.00 in0.0 mm 0.00 in0.0 mm 0.00 in0.0 mm
01:55 PM 21.9°F-5.6°C 17.2°F-8.2°C 82% 5.0 mph WSW8.0 kmh WSW -- 29.88 in1011.9 mb 0.00 in0.0 mm 0.00 in0.0 mm 0.00 in0.0 mm
02:00 PM 21.7°F-5.7°C 17.1°F-8.3°C 82% 6.0 mph SW9.7 kmh SW -- 29.89 in1012.2 mb 0.00 in0.0 mm 0.00 in0.0 mm 0.00 in0.0 mm
02:05 PM 21.8°F-5.7°C 17.6°F-8.0°C 84% 7.0 mph WSW11.3 kmh WSW 8.0 mph12.9 kmh 29.89 in1012.2 mb 0.00 in0.0 mm 0.00 in0.0 mm 0.00 in0.0 mm
02:10 PM 21.9°F-5.6°C 17.6°F-8.0°C 83% 6.0 mph WSW9.7 kmh WSW -- 29.89 in1012.2 mb 0.00 in0.0 mm 0.00 in0.0 mm 0.00 in0.0 mm
02:15 PM 21.3°F-5.9°C 17.1°F-8.3°C 83% 6.0 mph SW9.7 kmh SW -- 29.89 in1012.2 mb 0.00 in0.0 mm 0.00 in0.0 mm 0.00 in0.0 mm
02:20 PM 21.7°F-5.7°C 18.0°F-7.8°C 85% 7.0 mph WSW11.3 kmh WSW -- 29.89 in1012.2 mb 0.00 in0.0 mm 0.00 in0.0 mm 0.00 in0.0 mm
02:25 PM 21.7°F-5.7°C 17.4°F-8.1°C 83% 7.0 mph WSW11.3 kmh WSW -- 29.89 in1012.2 mb 0.00 in0.0 mm 0.00 in0.0 mm 0.00 in0.0 mm
02:30 PM 21.7°F-5.7°C 17.4°F-8.1°C 83% 6.0 mph SW9.7 kmh SW 8.0 mph12.9 kmh 29.89 in1012.2 mb 0.00 in0.0 mm 0.00 in0.0 mm 0.00 in0.0 mm
02:35 PM 21.3°F-5.9°C 17.1°F-8.3°C 83% 6.0 mph WSW9.7 kmh WSW -- 29.89 in1012.2 mb 0.00 in0.0 mm 0.00 in0.0 mm 0.00 in0.0 mm
02:40 PM 21.3°F-5.9°C 17.1°F-8.3°C 83% 6.0 mph WSW9.7 kmh WSW -- 29.89 in1012.2 mb 0.00 in0.0 mm 0.00 in0.0 mm 0.00 in0.0 mm
02:45 PM 21.0°F-6.1°C 16.7°F-8.5°C 83% 6.0 mph WSW9.7 kmh WSW -- 29.89 in1012.2 mb 0.00 in0.0 mm 0.00 in0.0 mm 0.00 in0.0 mm
02:50 PM 21.5°F-5.8°C 17.4°F-8.1°C 84% 7.0 mph WSW11.3 kmh WSW -- 29.89 in1012.2 mb 0.00 in0.0 mm 0.00 in0.0 mm 0.00 in0.0 mm
02:55 PM 20.9°F-6.2°C 16.5°F-8.6°C 83% 6.0 mph WSW9.7 kmh WSW 8.0 mph12.9 kmh 29.89 in1012.2 mb 0.00 in0.0 mm 0.00 in0.0 mm 0.00 in0.0 mm
03:00 PM 21.0°F-6.1°C 16.7°F-8.5°C 83% 6.0 mph WSW9.7 kmh WSW -- 29.89 in1012.2 mb 0.00 in0.0 mm 0.00 in0.0 mm 0.00 in0.0 mm
03:05 PM 21.4°F-5.9°C 17.1°F-8.3°C 83% 8.0 mph WSW12.9 kmh WSW -- 29.89 in1012.2 mb 0.00 in0.0 mm 0.00 in0.0 mm 0.00 in0.0 mm
03:10 PM 21.5°F-5.8°C 17.2°F-8.2°C 83% 7.0 mph WSW11.3 kmh WSW -- 29.89 in1012.2 mb 0.00 in0.0 mm 0.00 in0.0 mm 0.00 in0.0 mm
03:15 PM 21.1°F-6.1°C 16.3°F-8.7°C 82% 7.0 mph WSW11.3 kmh WSW -- 29.89 in1012.2 mb 0.00 in0.0 mm 0.00 in0.0 mm 0.00 in0.0 mm
03:20 PM 21.1°F-6.1°C 16.7°F-8.5°C 83% 9.0 mph WSW14.5 kmh WSW 9.0 mph14.5 kmh 29.89 in1012.2 mb 0.00 in0.0 mm 0.00 in0.0 mm 0.00 in0.0 mm
03:25 PM 21.2°F-6.0°C 16.5°F-8.6°C 82% 7.0 mph WSW11.3 kmh WSW -- 29.89 in1012.2 mb 0.00 in0.0 mm 0.00 in0.0 mm 0.00 in0.0 mm
03:30 PM 21.8°F-5.7°C 16.9°F-8.4°C 81% 7.0 mph WSW11.3 kmh WSW -- 29.89 in1012.2 mb 0.00 in0.0 mm 0.00 in0.0 mm 0.00 in0.0 mm
03:35 PM 21.9°F-5.6°C 16.7°F-8.5°C 80% 8.0 mph WSW12.9 kmh WSW -- 29.89 in1012.2 mb 0.00 in0.0 mm 0.00 in0.0 mm 0.00 in0.0 mm
03:40 PM 21.2°F-6.0°C 15.8°F-9.0°C 79% 7.0 mph WSW11.3 kmh WSW -- 29.89 in1012.2 mb 0.00 in0.0 mm 0.00 in0.0 mm 0.00 in0.0 mm
03:45 PM 21.5°F-5.8°C 16.7°F-8.5°C 81% 7.0 mph WSW11.3 kmh WSW 9.0 mph14.5 kmh 29.89 in1012.2 mb 0.00 in0.0 mm 0.00 in0.0 mm 0.00 in0.0 mm
03:50 PM 21.1°F-6.1°C 15.8°F-9.0°C 80% 6.0 mph WSW9.7 kmh WSW -- 29.89 in1012.2 mb 0.00 in0.0 mm 0.00 in0.0 mm 0.00 in0.0 mm
03:55 PM 21.2°F-6.0°C 16.3°F-8.7°C 81% 7.0 mph WSW11.3 kmh WSW -- 29.89 in1012.2 mb 0.00 in0.0 mm 0.00 in0.0 mm 0.00 in0.0 mm
04:00 PM 20.9°F-6.2°C 16.0°F-8.9°C 81% 5.0 mph WSW8.0 kmh WSW -- 29.89 in1012.2 mb 0.00 in0.0 mm 0.00 in0.0 mm 0.00 in0.0 mm
04:05 PM 20.4°F-6.4°C 15.6°F-9.1°C 81% 6.0 mph WSW9.7 kmh WSW -- 29.89 in1012.2 mb 0.00 in0.0 mm 0.00 in0.0 mm 0.00 in0.0 mm
04:10 PM 20.1°F-6.6°C 15.4°F-9.2°C 82% 7.0 mph WSW11.3 kmh WSW 8.0 mph12.9 kmh 29.89 in1012.2 mb 0.00 in0.0 mm 0.00 in0.0 mm 0.00 in0.0 mm
04:15 PM 20.0°F-6.7°C 15.3°F-9.3°C 82% 6.0 mph SW9.7 kmh SW -- 29.89 in1012.2 mb 0.00 in0.0 mm 0.00 in0.0 mm 0.00 in0.0 mm
04:20 PM 19.9°F-6.7°C 15.6°F-9.1°C 83% 6.0 mph WSW9.7 kmh WSW -- 29.89 in1012.2 mb 0.00 in0.0 mm 0.00 in0.0 mm 0.00 in0.0 mm
04:25 PM 20.1°F-6.6°C 15.8°F-9.0°C 83% 8.0 mph WSW12.9 kmh WSW -- 29.90 in1012.5 mb 0.00 in0.0 mm 0.00 in0.0 mm 0.00 in0.0 mm
04:30 PM 20.3°F-6.5°C 16.0°F-8.9°C 83% 7.0 mph WSW11.3 kmh WSW -- 29.89 in1012.2 mb 0.00 in0.0 mm 0.00 in0.0 mm 0.00 in0.0 mm
04:35 PM 20.2°F-6.6°C 15.4°F-9.2°C 82% 7.0 mph WSW11.3 kmh WSW 9.0 mph14.5 kmh 29.90 in1012.5 mb 0.00 in0.0 mm 0.00 in0.0 mm 0.00 in0.0 mm
04:40 PM 20.2°F-6.6°C 15.8°F-9.0°C 83% 7.0 mph WSW11.3 kmh WSW -- 29.90 in1012.5 mb 0.00 in0.0 mm 0.00 in0.0 mm 0.00 in0.0 mm
04:45 PM 20.2°F-6.6°C 15.8°F-9.0°C 83% 7.0 mph WSW11.3 kmh WSW -- 29.90 in1012.5 mb 0.00 in0.0 mm 0.00 in0.0 mm 0.00 in0.0 mm
04:50 PM 20.1°F-6.6°C 15.4°F-9.2°C 82% 6.0 mph WSW9.7 kmh WSW -- 29.90 in1012.5 mb 0.00 in0.0 mm 0.00 in0.0 mm 0.00 in0.0 mm
04:55 PM 19.9°F-6.7°C 15.1°F-9.4°C 81% 8.0 mph WSW12.9 kmh WSW -- 29.90 in1012.5 mb 0.00 in0.0 mm 0.00 in0.0 mm 0.00 in0.0 mm
05:00 PM 19.8°F-6.8°C 15.3°F-9.3°C 82% 7.0 mph WSW11.3 kmh WSW 9.0 mph14.5 kmh 29.90 in1012.5 mb 0.00 in0.0 mm 0.00 in0.0 mm 0.00 in0.0 mm
05:05 PM 19.6°F-6.9°C 14.7°F-9.6°C 81% 5.0 mph WSW8.0 kmh WSW -- 29.90 in1012.5 mb 0.00 in0.0 mm 0.00 in0.0 mm 0.00 in0.0 mm
05:10 PM 19.5°F-6.9°C 15.1°F-9.4°C 82% 6.0 mph WSW9.7 kmh WSW -- 29.90 in1012.5 mb 0.00 in0.0 mm 0.00 in0.0 mm 0.00 in0.0 mm
05:15 PM 19.1°F-7.2°C 14.5°F-9.7°C 82% 7.0 mph WSW11.3 kmh WSW -- 29.90 in1012.5 mb 0.00 in0.0 mm 0.00 in0.0 mm 0.00 in0.0 mm
05:20 PM 19.6°F-6.9°C 15.1°F-9.4°C 82% 6.0 mph WSW9.7 kmh WSW -- 29.90 in1012.5 mb 0.00 in0.0 mm 0.00 in0.0 mm 0.00 in0.0 mm
05:25 PM 19.5°F-6.9°C 15.1°F-9.4°C 82% 6.0 mph SW9.7 kmh SW 8.0 mph12.9 kmh 29.90 in1012.5 mb 0.00 in0.0 mm 0.00 in0.0 mm 0.00 in0.0 mm
05:30 PM 20.0°F-6.7°C 15.6°F-9.1°C 83% 7.0 mph WSW11.3 kmh WSW -- 29.90 in1012.5 mb 0.00 in0.0 mm 0.00 in0.0 mm 0.00 in0.0 mm
05:35 PM 20.7°F-6.3°C 16.0°F-8.9°C 82% 7.0 mph WSW11.3 kmh WSW -- 29.90 in1012.5 mb 0.00 in0.0 mm 0.00 in0.0 mm 0.00 in0.0 mm
05:40 PM 20.6°F-6.3°C 16.0°F-8.9°C 82% 6.0 mph WSW9.7 kmh WSW -- 29.90 in1012.5 mb 0.00 in0.0 mm 0.00 in0.0 mm 0.00 in0.0 mm
05:45 PM 20.7°F-6.3°C 16.3°F-8.7°C 83% 6.0 mph WSW9.7 kmh WSW -- 29.91 in1012.9 mb 0.00 in0.0 mm 0.00 in0.0 mm 0.00 in0.0 mm
05:50 PM 20.5°F-6.4°C 16.2°F-8.8°C 83% 6.0 mph SW9.7 kmh SW 8.0 mph12.9 kmh 29.91 in1012.9 mb 0.00 in0.0 mm 0.00 in0.0 mm 0.00 in0.0 mm
05:55 PM 20.6°F-6.3°C 16.3°F-8.7°C 83% 6.0 mph WSW9.7 kmh WSW -- 29.91 in1012.9 mb 0.00 in0.0 mm 0.00 in0.0 mm 0.00 in0.0 mm
06:00 PM 20.7°F-6.3°C 16.0°F-8.9°C 82% 6.0 mph WSW9.7 kmh WSW -- 29.91 in1012.9 mb 0.00 in0.0 mm 0.00 in0.0 mm 0.00 in0.0 mm
06:05 PM 20.6°F-6.3°C 16.0°F-8.9°C 82% 7.0 mph WSW11.3 kmh WSW -- 29.91 in1012.9 mb 0.00 in0.0 mm 0.00 in0.0 mm 0.00 in0.0 mm
06:10 PM 20.2°F-6.6°C 15.4°F-9.2°C 82% 6.0 mph WSW9.7 kmh WSW -- 29.91 in1012.9 mb 0.00 in0.0 mm 0.00 in0.0 mm 0.00 in0.0 mm
06:15 PM 20.1°F-6.6°C 15.8°F-9.0°C 83% 4.0 mph SW6.4 kmh SW 9.0 mph14.5 kmh 29.91 in1012.9 mb 0.00 in0.0 mm 0.00 in0.0 mm 0.00 in0.0 mm
06:20 PM 20.1°F-6.6°C 15.8°F-9.0°C 83% 5.0 mph WSW8.0 kmh WSW -- 29.91 in1012.9 mb 0.00 in0.0 mm 0.00 in0.0 mm 0.00 in0.0 mm
06:25 PM 19.9°F-6.7°C 15.3°F-9.3°C 82% 6.0 mph WSW9.7 kmh WSW -- 29.91 in1012.9 mb 0.00 in0.0 mm 0.00 in0.0 mm 0.00 in0.0 mm
06:30 PM 19.5°F-6.9°C 15.1°F-9.4°C 82% 7.0 mph WSW11.3 kmh WSW -- 29.91 in1012.9 mb 0.00 in0.0 mm 0.00 in0.0 mm 0.00 in0.0 mm
06:35 PM 19.8°F-6.8°C 15.4°F-9.2°C 83% 7.0 mph WSW11.3 kmh WSW -- 29.91 in1012.9 mb 0.00 in0.0 mm 0.00 in0.0 mm 0.00 in0.0 mm
06:40 PM 19.8°F-6.8°C 15.3°F-9.3°C 82% 8.0 mph WSW12.9 kmh WSW 10.0 mph16.1 kmh 29.91 in1012.9 mb 0.00 in0.0 mm 0.00 in0.0 mm 0.00 in0.0 mm
06:45 PM 20.1°F-6.6°C 15.8°F-9.0°C 83% 9.0 mph WSW14.5 kmh WSW -- 29.91 in1012.9 mb 0.00 in0.0 mm 0.00 in0.0 mm 0.00 in0.0 mm
06:50 PM 20.5°F-6.4°C 15.8°F-9.0°C 82% 8.0 mph WSW12.9 kmh WSW -- 29.91 in1012.9 mb 0.00 in0.0 mm 0.00 in0.0 mm 0.00 in0.0 mm
06:55 PM 20.9°F-6.2°C 16.0°F-8.9°C 81% 8.0 mph WSW12.9 kmh WSW -- 29.91 in1012.9 mb 0.00 in0.0 mm 0.00 in0.0 mm 0.00 in0.0 mm
07:00 PM 21.2°F-6.0°C 16.3°F-8.7°C 81% 8.0 mph WSW12.9 kmh WSW -- 29.91 in1012.9 mb 0.00 in0.0 mm 0.00 in0.0 mm 0.00 in0.0 mm
07:05 PM 21.7°F-5.7°C 16.5°F-8.6°C 80% 6.0 mph WSW9.7 kmh WSW 9.0 mph14.5 kmh 29.91 in1012.9 mb 0.00 in0.0 mm 0.00 in0.0 mm 0.00 in0.0 mm
07:10 PM 21.1°F-6.1°C 15.8°F-9.0°C 80% 7.0 mph WSW11.3 kmh WSW -- 29.92 in1013.2 mb 0.00 in0.0 mm 0.00 in0.0 mm 0.00 in0.0 mm
07:15 PM 21.3°F-5.9°C 16.5°F-8.6°C 81% 7.0 mph WSW11.3 kmh WSW -- 29.92 in1013.2 mb 0.00 in0.0 mm 0.00 in0.0 mm 0.00 in0.0 mm
07:20 PM 21.3°F-5.9°C 16.5°F-8.6°C 81% 6.0 mph WSW9.7 kmh WSW -- 29.92 in1013.2 mb 0.00 in0.0 mm 0.00 in0.0 mm 0.00 in0.0 mm
07:25 PM 20.5°F-6.4°C 15.1°F-9.4°C 79% 6.0 mph WSW9.7 kmh WSW -- 29.92 in1013.2 mb 0.00 in0.0 mm 0.00 in0.0 mm 0.00 in0.0 mm
07:30 PM 20.2°F-6.6°C 15.3°F-9.3°C 81% 6.0 mph SW9.7 kmh SW 11.0 mph17.7 kmh 29.92 in1013.2 mb 0.00 in0.0 mm 0.00 in0.0 mm 0.00 in0.0 mm
07:35 PM 20.1°F-6.6°C 15.3°F-9.3°C 81% 6.0 mph SW9.7 kmh SW -- 29.92 in1013.2 mb 0.00 in0.0 mm 0.00 in0.0 mm 0.00 in0.0 mm
07:40 PM 19.7°F-6.8°C 15.3°F-9.3°C 82% 7.0 mph WSW11.3 kmh WSW -- 29.92 in1013.2 mb 0.00 in0.0 mm 0.00 in0.0 mm 0.00 in0.0 mm
07:45 PM 19.7°F-6.8°C 15.4°F-9.2°C 83% 7.0 mph WSW11.3 kmh WSW -- 29.92 in1013.2 mb 0.00 in0.0 mm 0.00 in0.0 mm 0.00 in0.0 mm
07:50 PM 20.1°F-6.6°C 15.8°F-9.0°C 83% 7.0 mph WSW11.3 kmh WSW -- 29.92 in1013.2 mb 0.00 in0.0 mm 0.00 in0.0 mm 0.00 in0.0 mm
07:55 PM 20.3°F-6.5°C 15.6°F-9.1°C 82% 6.0 mph WSW9.7 kmh WSW 10.0 mph16.1 kmh 29.92 in1013.2 mb 0.00 in0.0 mm 0.00 in0.0 mm 0.00 in0.0 mm
08:00 PM 19.9°F-6.7°C 15.1°F-9.4°C 81% 6.0 mph SW9.7 kmh SW -- 29.93 in1013.5 mb 0.00 in0.0 mm 0.00 in0.0 mm 0.00 in0.0 mm
08:05 PM 20.0°F-6.7°C 15.1°F-9.4°C 81% 6.0 mph WSW9.7 kmh WSW -- 29.93 in1013.5 mb 0.00 in0.0 mm 0.00 in0.0 mm 0.00 in0.0 mm
08:10 PM 20.7°F-6.3°C 15.4°F-9.2°C 80% 6.0 mph WSW9.7 kmh WSW -- 29.93 in1013.5 mb 0.00 in0.0 mm 0.00 in0.0 mm 0.00 in0.0 mm
08:15 PM 20.4°F-6.4°C 15.1°F-9.4°C 79% 8.0 mph WSW12.9 kmh WSW -- 29.93 in1013.5 mb 0.00 in0.0 mm 0.00 in0.0 mm 0.00 in0.0 mm
08:20 PM 20.5°F-6.4°C 15.3°F-9.3°C 80% 6.0 mph WSW9.7 kmh WSW 8.0 mph12.9 kmh 29.93 in1013.5 mb 0.00 in0.0 mm 0.00 in0.0 mm 0.00 in0.0 mm
08:25 PM 20.2°F-6.6°C 14.7°F-9.6°C 79% 5.0 mph WSW8.0 kmh WSW -- 29.93 in1013.5 mb 0.00 in0.0 mm 0.00 in0.0 mm 0.00 in0.0 mm
08:30 PM 19.9°F-6.7°C 14.5°F-9.7°C 79% 7.0 mph WSW11.3 kmh WSW -- 29.93 in1013.5 mb 0.00 in0.0 mm 0.00 in0.0 mm 0.00 in0.0 mm
08:35 PM 20.2°F-6.6°C 14.9°F-9.5°C 80% 9.0 mph WSW14.5 kmh WSW -- 29.93 in1013.5 mb 0.00 in0.0 mm 0.00 in0.0 mm 0.00 in0.0 mm
08:40 PM 20.5°F-6.4°C 15.1°F-9.4°C 79% 7.0 mph WSW11.3 kmh WSW -- 29.93 in1013.5 mb 0.00 in0.0 mm 0.00 in0.0 mm 0.00 in0.0 mm
08:45 PM 19.7°F-6.8°C 14.0°F-10.0°C 78% 7.0 mph WSW11.3 kmh WSW 10.0 mph16.1 kmh 29.93 in1013.5 mb 0.00 in0.0 mm 0.00 in0.0 mm 0.00 in0.0 mm
08:50 PM 19.7°F-6.8°C 14.5°F-9.7°C 80% 5.0 mph WSW8.0 kmh WSW -- 29.93 in1013.5 mb 0.00 in0.0 mm 0.00 in0.0 mm 0.00 in0.0 mm
08:55 PM 19.0°F-7.2°C 13.6°F-10.2°C 79% 7.0 mph WSW11.3 kmh WSW -- 29.93 in1013.5 mb 0.00 in0.0 mm 0.00 in0.0 mm 0.00 in0.0 mm
09:00 PM 18.1°F-7.7°C 13.1°F-10.5°C 80% 6.0 mph SW9.7 kmh SW -- 29.94 in1013.9 mb 0.00 in0.0 mm 0.00 in0.0 mm 0.00 in0.0 mm
09:05 PM 18.5°F-7.5°C 13.6°F-10.2°C 81% 5.0 mph WSW8.0 kmh WSW -- 29.94 in1013.9 mb 0.00 in0.0 mm 0.00 in0.0 mm 0.00 in0.0 mm
09:10 PM 19.2°F-7.1°C 14.4°F-9.8°C 81% 5.0 mph WSW8.0 kmh WSW 7.0 mph11.3 kmh 29.94 in1013.9 mb 0.00 in0.0 mm 0.00 in0.0 mm 0.00 in0.0 mm
09:15 PM 19.3°F-7.1°C 13.8°F-10.1°C 79% 4.0 mph SW6.4 kmh SW -- 29.94 in1013.9 mb 0.00 in0.0 mm 0.00 in0.0 mm 0.00 in0.0 mm
09:20 PM 19.3°F-7.1°C 14.4°F-9.8°C 81% 5.0 mph WSW8.0 kmh WSW -- 29.94 in1013.9 mb 0.00 in0.0 mm 0.00 in0.0 mm 0.00 in0.0 mm
09:25 PM 19.8°F-6.8°C 14.5°F-9.7°C 80% 6.0 mph WSW9.7 kmh WSW -- 29.94 in1013.9 mb 0.00 in0.0 mm 0.00 in0.0 mm 0.00 in0.0 mm
09:30 PM 20.0°F-6.7°C 14.7°F-9.6°C 80% 5.0 mph WSW8.0 kmh WSW -- 29.94 in1013.9 mb 0.00 in0.0 mm 0.00 in0.0 mm 0.00 in0.0 mm
09:35 PM 19.3°F-7.1°C 13.8°F-10.1°C 79% 4.0 mph SW6.4 kmh SW 7.0 mph11.3 kmh 29.94 in1013.9 mb 0.00 in0.0 mm 0.00 in0.0 mm 0.00 in0.0 mm
09:40 PM 19.3°F-7.1°C 14.4°F-9.8°C 81% 4.0 mph WSW6.4 kmh WSW -- 29.94 in1013.9 mb 0.00 in0.0 mm 0.00 in0.0 mm 0.00 in0.0 mm
09:45 PM 18.8°F-7.3°C 14.0°F-10.0°C 81% 3.0 mph WSW4.8 kmh WSW -- 29.94 in1013.9 mb 0.00 in0.0 mm 0.00 in0.0 mm 0.00 in0.0 mm
09:50 PM 18.4°F-7.6°C 13.5°F-10.3°C 81% 6.0 mph WSW9.7 kmh WSW -- 29.94 in1013.9 mb 0.00 in0.0 mm 0.00 in0.0 mm 0.00 in0.0 mm
09:55 PM 18.7°F-7.4°C 14.4°F-9.8°C 83% 5.0 mph WSW8.0 kmh WSW -- 29.94 in1013.9 mb 0.00 in0.0 mm 0.00 in0.0 mm 0.00 in0.0 mm
10:00 PM 18.5°F-7.5°C 14.0°F-10.0°C 82% 5.0 mph SW8.0 kmh SW 7.0 mph11.3 kmh 29.94 in1013.9 mb 0.00 in0.0 mm 0.00 in0.0 mm 0.00 in0.0 mm
10:05 PM 18.6°F-7.4°C 14.2°F-9.9°C 82% 5.0 mph SW8.0 kmh SW -- 29.94 in1013.9 mb 0.00 in0.0 mm 0.00 in0.0 mm 0.00 in0.0 mm
10:10 PM 18.2°F-7.7°C 13.6°F-10.2°C 82% 5.0 mph WSW8.0 kmh WSW -- 29.94 in1013.9 mb 0.00 in0.0 mm 0.00 in0.0 mm 0.00 in0.0 mm
10:15 PM 17.9°F-7.8°C 13.5°F-10.3°C 82% 5.0 mph SW8.0 kmh SW -- 29.94 in1013.9 mb 0.00 in0.0 mm 0.00 in0.0 mm 0.00 in0.0 mm
10:20 PM 18.0°F-7.8°C 13.6°F-10.2°C 83% 4.0 mph SW6.4 kmh SW -- 29.94 in1013.9 mb 0.00 in0.0 mm 0.00 in0.0 mm 0.00 in0.0 mm
10:25 PM 19.1°F-7.2°C 14.7°F-9.6°C 83% 4.0 mph WSW6.4 kmh WSW 6.0 mph9.7 kmh 29.94 in1013.9 mb 0.00 in0.0 mm 0.00 in0.0 mm 0.00 in0.0 mm
10:30 PM 20.2°F-6.6°C 15.3°F-9.3°C 81% 7.0 mph WSW11.3 kmh WSW -- 29.94 in1013.9 mb 0.00 in0.0 mm 0.00 in0.0 mm 0.00 in0.0 mm
10:35 PM 20.1°F-6.6°C 14.9°F-9.5°C 80% 8.0 mph WSW12.9 kmh WSW -- 29.94 in1013.9 mb 0.00 in0.0 mm 0.00 in0.0 mm 0.00 in0.0 mm
10:40 PM 20.6°F-6.3°C 15.4°F-9.2°C 80% 6.0 mph WSW9.7 kmh WSW -- 29.94 in1013.9 mb 0.00 in0.0 mm 0.00 in0.0 mm 0.00 in0.0 mm
10:45 PM 20.6°F-6.3°C 15.3°F-9.3°C 79% 5.0 mph WSW8.0 kmh WSW -- 29.95 in1014.2 mb 0.00 in0.0 mm 0.00 in0.0 mm 0.00 in0.0 mm
10:50 PM 20.8°F-6.2°C 15.4°F-9.2°C 79% 6.0 mph WSW9.7 kmh WSW 8.0 mph12.9 kmh 29.95 in1014.2 mb 0.00 in0.0 mm 0.00 in0.0 mm 0.00 in0.0 mm
10:55 PM 20.7°F-6.3°C 14.9°F-9.5°C 78% 7.0 mph WSW11.3 kmh WSW -- 29.95 in1014.2 mb 0.00 in0.0 mm 0.00 in0.0 mm 0.00 in0.0 mm
11:00 PM 20.3°F-6.5°C 14.9°F-9.5°C 79% 5.0 mph WSW8.0 kmh WSW -- 29.95 in1014.2 mb 0.00 in0.0 mm 0.00 in0.0 mm 0.00 in0.0 mm
11:05 PM 20.3°F-6.5°C 14.9°F-9.5°C 79% 6.0 mph WSW9.7 kmh WSW -- 29.95 in1014.2 mb 0.00 in0.0 mm 0.00 in0.0 mm 0.00 in0.0 mm
11:10 PM 20.4°F-6.4°C 15.1°F-9.4°C 79% 6.0 mph WSW9.7 kmh WSW -- 29.95 in1014.2 mb 0.00 in0.0 mm 0.00 in0.0 mm 0.00 in0.0 mm
11:15 PM 20.5°F-6.4°C 15.1°F-9.4°C 79% 6.0 mph WSW9.7 kmh WSW 8.0 mph12.9 kmh 29.95 in1014.2 mb 0.00 in0.0 mm 0.00 in0.0 mm 0.00 in0.0 mm
11:20 PM 20.0°F-6.7°C 14.5°F-9.7°C 79% 7.0 mph WSW11.3 kmh WSW -- 29.95 in1014.2 mb 0.00 in0.0 mm 0.00 in0.0 mm 0.00 in0.0 mm
11:25 PM 19.7°F-6.8°C 14.4°F-9.8°C 79% 7.0 mph WSW11.3 kmh WSW -- 29.95 in1014.2 mb 0.00 in0.0 mm 0.00 in0.0 mm 0.00 in0.0 mm
11:30 PM 19.0°F-7.2°C 13.8°F-10.1°C 80% 7.0 mph WSW11.3 kmh WSW -- 29.95 in1014.2 mb 0.00 in0.0 mm 0.00 in0.0 mm 0.00 in0.0 mm
11:35 PM 19.5°F-6.9°C 14.7°F-9.6°C 81% 6.0 mph WSW9.7 kmh WSW -- 29.95 in1014.2 mb 0.00 in0.0 mm 0.00 in0.0 mm 0.00 in0.0 mm
11:40 PM 19.2°F-7.1°C 14.4°F-9.8°C 81% 7.0 mph WSW11.3 kmh WSW 9.0 mph14.5 kmh 29.95 in1014.2 mb 0.00 in0.0 mm 0.00 in0.0 mm 0.00 in0.0 mm
11:45 PM 18.9°F-7.3°C 14.0°F-10.0°C 81% 6.0 mph WSW9.7 kmh WSW -- 29.95 in1014.2 mb 0.00 in0.0 mm 0.00 in0.0 mm 0.00 in0.0 mm
11:50 PM 18.7°F-7.4°C 13.8°F-10.1°C 81% 7.0 mph WSW11.3 kmh WSW -- 29.95 in1014.2 mb 0.00 in0.0 mm 0.00 in0.0 mm 0.00 in0.0 mm
11:55 PM 18.8°F-7.3°C 14.4°F-9.8°C 82% 5.0 mph SW8.0 kmh SW -- 29.95 in1014.2 mb 0.00 in0.0 mm 0.00 in0.0 mm 0.00 in0.0 mm